Saint Louis, Canada
Current Conditions -  °F | °C
As of 2:00 AM on Tuesday 21 Oct 2014 (Local Time) from CYPA Reporting Station
Clear Clear  
Wind Chill: 37°   Ceiling: Unl
Heat Index: 37°   Visibility: 15mi
Dew Point: 36°   Wind: 3mph
Humidity: 93%   Direction: 80°E
Pressure: 29.6"   Gusts: NA
Location:  52.92°N, 105.8°W
Report Text: CYPA 210800Z 08003KT 15SM SKC 03/02 A2960 RMK SLP034
Loading
Personal Weather Stations






























Interactive Weather Map
Tropical Storm Tracking
New forecast layout! Learn more

10-Day Weather Forecast

Advertisements
Track Severe Weather on mobile